sensor_id;sensor_type;location;lat;lon;timestamp;temperature;humidity
23102;DHT22;11720;51.214;22.574;2023-02-01T00:00:17;0.90;99.90
23102;DHT22;11720;51.214;22.574;2023-02-01T00:05:10;0.90;99.90
23102;DHT22;11720;51.214;22.574;2023-02-01T00:07:36;0.90;99.90
23102;DHT22;11720;51.214;22.574;2023-02-01T00:10:03;0.90;99.90
23102;DHT22;11720;51.214;22.574;2023-02-01T00:51:29;1.00;99.90
23102;DHT22;11720;51.214;22.574;2023-02-01T01:03:42;0.90;99.90
23102;DHT22;11720;51.214;22.574;2023-02-01T01:06:14;1.20;99.90
23102;DHT22;11720;51.214;22.574;2023-02-01T01:11:16;1.90;99.90
23102;DHT22;11720;51.214;22.574;2023-02-01T01:16:10;1.10;99.90
23102;DHT22;11720;51.214;22.574;2023-02-01T01:21:04;1.10;99.90
23102;DHT22;11720;51.214;22.574;2023-02-01T01:50:29;3.50;99.90
23102;DHT22;11720;51.214;22.574;2023-02-01T01:52:57;1.00;99.90
23102;DHT22;11720;51.214;22.574;2023-02-01T01:55:24;1.00;99.90
23102;DHT22;11720;51.214;22.574;2023-02-01T01:57:56;1.10;99.90
23102;DHT22;11720;51.214;22.574;2023-02-01T02:02:54;1.30;99.90
23102;DHT22;11720;51.214;22.574;2023-02-01T02:07:49;1.40;99.90
23102;DHT22;11720;51.214;22.574;2023-02-01T02:12:44;1.50;99.90
23102;DHT22;11720;51.214;22.574;2023-02-01T02:36:01;1.70;99.90
23102;DHT22;11720;51.214;22.574;2023-02-01T02:38:44;2.90;99.90
23102;DHT22;11720;51.214;22.574;2023-02-01T02:47:21;1.90;99.90
23102;DHT22;11720;51.214;22.574;2023-02-01T02:52:59;1.90;99.90
23102;DHT22;11720;51.214;22.574;2023-02-01T02:58:13;2.00;99.90
23102;DHT22;11720;51.214;22.574;2023-02-01T03:08:57;2.00;99.90
23102;DHT22;11720;51.214;22.574;2023-02-01T03:14:11;2.10;99.90
23102;DHT22;11720;51.214;22.574;2023-02-01T03:16:49;2.10;99.90
23102;DHT22;11720;51.214;22.574;2023-02-01T03:19:33;1.60;99.90
23102;DHT22;11720;51.214;22.574;2023-02-01T03:22:07;2.00;99.90
23102;DHT22;11720;51.214;22.574;2023-02-01T03:24:49;2.10;99.90
23102;DHT22;11720;51.214;22.574;2023-02-01T03:32:17;2.00;99.90
23102;DHT22;11720;51.214;22.574;2023-02-01T03:39:51;1.90;99.90
23102;DHT22;11720;51.214;22.574;2023-02-01T03:42:27;1.90;99.90
23102;DHT22;11720;51.214;22.574;2023-02-01T03:44:58;1.90;99.90
23102;DHT22;11720;51.214;22.574;2023-02-01T03:47:30;1.90;99.90
23102;DHT22;11720;51.214;22.574;2023-02-01T03:50:08;1.90;99.90
23102;DHT22;11720;51.214;22.574;2023-02-01T03:52:40;2.00;99.90
23102;DHT22;11720;51.214;22.574;2023-02-01T03:55:09;1.90;99.90
23102;DHT22;11720;51.214;22.574;2023-02-01T03:57:41;2.00;99.90
23102;DHT22;11720;51.214;22.574;2023-02-01T04:00:17;1.90;99.90
23102;DHT22;11720;51.214;22.574;2023-02-01T04:24:41;2.10;99.90
23102;DHT22;11720;51.214;22.574;2023-02-01T04:44:15;1.90;99.90
23102;DHT22;11720;51.214;22.574;2023-02-01T04:49:09;1.90;99.90
23102;DHT22;11720;51.214;22.574;2023-02-01T05:53:13;2.10;99.90
23102;DHT22;11720;51.214;22.574;2023-02-01T05:58:05;2.10;99.90
23102;DHT22;11720;51.214;22.574;2023-02-01T06:10:17;2.20;99.90
23102;DHT22;11720;51.214;22.574;2023-02-01T07:16:16;2.50;99.90
23102;DHT22;11720;51.214;22.574;2023-02-01T07:26:04;2.60;99.90
23102;DHT22;11720;51.214;22.574;2023-02-01T07:28:32;2.60;99.90
23102;DHT22;11720;51.214;22.574;2023-02-01T07:31:09;2.60;99.90
23102;DHT22;11720;51.214;22.574;2023-02-01T07:36:04;2.60;99.90
23102;DHT22;11720;51.214;22.574;2023-02-01T07:41:00;2.80;99.90
23102;DHT22;11720;51.214;22.574;2023-02-01T07:43:27;2.60;99.90
23102;DHT22;11720;51.214;22.574;2023-02-01T07:45:54;2.60;99.90
23102;DHT22;11720;51.214;22.574;2023-02-01T07:48:21;2.70;99.90
23102;DHT22;11720;51.214;22.574;2023-02-01T08:15:29;2.90;99.90
23102;DHT22;11720;51.214;22.574;2023-02-01T08:22:52;3.10;99.90
23102;DHT22;11720;51.214;22.574;2023-02-01T08:30:11;3.20;99.90
23102;DHT22;11720;51.214;22.574;2023-02-01T08:35:06;3.50;99.90
23102;DHT22;11720;51.214;22.574;2023-02-01T08:45:09;3.30;99.90
23102;DHT22;11720;51.214;22.574;2023-02-01T09:02:14;3.50;99.90
23102;DHT22;11720;51.214;22.574;2023-02-01T09:24:10;3.60;99.90
23102;DHT22;11720;51.214;22.574;2023-02-01T09:31:29;3.60;99.90
23102;DHT22;11720;51.214;22.574;2023-02-01T09:44:16;3.70;99.90
23102;DHT22;11720;51.214;22.574;2023-02-01T09:46:45;3.60;99.90
23102;DHT22;11720;51.214;22.574;2023-02-01T09:49:18;3.60;99.90
23102;DHT22;11720;51.214;22.574;2023-02-01T09:51:47;3.60;99.90
23102;DHT22;11720;51.214;22.574;2023-02-01T09:54:19;3.70;99.90
23102;DHT22;11720;51.214;22.574;2023-02-01T09:57:04;3.90;99.90
23102;DHT22;11720;51.214;22.574;2023-02-01T10:01:58;3.70;99.90
23102;DHT22;11720;51.214;22.574;2023-02-01T10:22:40;3.50;99.90
23102;DHT22;11720;51.214;22.574;2023-02-01T10:27:35;3.50;99.90
23102;DHT22;11720;51.214;22.574;2023-02-01T10:30:23;3.20;99.90
23102;DHT22;11720;51.214;22.574;2023-02-01T10:32:54;3.10;99.90
23102;DHT22;11720;51.214;22.574;2023-02-01T10:35:31;3.10;99.90
23102;DHT22;11720;51.214;22.574;2023-02-01T10:38:01;3.00;99.90
23102;DHT22;11720;51.214;22.574;2023-02-01T10:40:28;3.00;99.90
23102;DHT22;11720;51.214;22.574;2023-02-01T10:42:57;3.00;99.90
23102;DHT22;11720;51.214;22.574;2023-02-01T10:45:27;3.10;99.90
23102;DHT22;11720;51.214;22.574;2023-02-01T10:47:55;3.10;99.90
23102;DHT22;11720;51.214;22.574;2023-02-01T10:50:41;3.40;99.90
23102;DHT22;11720;51.214;22.574;2023-02-01T10:58:20;3.10;99.90
23102;DHT22;11720;51.214;22.574;2023-02-01T11:00:54;3.10;99.90
23102;DHT22;11720;51.214;22.574;2023-02-01T11:05:55;3.20;99.90
23102;DHT22;11720;51.214;22.574;2023-02-01T11:13:16;3.50;99.90
23102;DHT22;11720;51.214;22.574;2023-02-01T11:15:44;3.60;99.90
23102;DHT22;11720;51.214;22.574;2023-02-01T11:18:20;3.60;99.90
23102;DHT22;11720;51.214;22.574;2023-02-01T11:23:22;3.80;99.90
23102;DHT22;11720;51.214;22.574;2023-02-01T11:25:56;4.00;99.90
23102;DHT22;11720;51.214;22.574;2023-02-01T11:28:31;4.10;99.90
23102;DHT22;11720;51.214;22.574;2023-02-01T11:31:01;4.10;99.90
23102;DHT22;11720;51.214;22.574;2023-02-01T11:33:35;4.20;99.90
23102;DHT22;11720;51.214;22.574;2023-02-01T11:36:11;4.30;99.90
23102;DHT22;11720;51.214;22.574;2023-02-01T11:41:25;4.20;99.90
23102;DHT22;11720;51.214;22.574;2023-02-01T11:46:21;4.20;99.90
23102;DHT22;11720;51.214;22.574;2023-02-01T11:51:35;4.20;99.90
23102;DHT22;11720;51.214;22.574;2023-02-01T11:57:19;4.20;99.90
23102;DHT22;11720;51.214;22.574;2023-02-01T12:00:17;4.20;99.90
23102;DHT22;11720;51.214;22.574;2023-02-01T12:08:37;4.80;99.90
23102;DHT22;11720;51.214;22.574;2023-02-01T12:14:01;3.80;99.90
23102;DHT22;11720;51.214;22.574;2023-02-01T12:16:40;4.00;99.90
23102;DHT22;11720;51.214;22.574;2023-02-01T12:19:23;4.00;99.90
23102;DHT22;11720;51.214;22.574;2023-02-01T12:24:26;4.20;99.90
23102;DHT22;11720;51.214;22.574;2023-02-01T12:27:05;3.80;99.90
23102;DHT22;11720;51.214;22.574;2023-02-01T12:35:47;3.90;99.90
23102;DHT22;11720;51.214;22.574;2023-02-01T12:41:15;3.80;99.90
23102;DHT22;11720;51.214;22.574;2023-02-01T12:43:57;4.20;99.90
23102;DHT22;11720;51.214;22.574;2023-02-01T12:46:37;3.90;99.90
23102;DHT22;11720;51.214;22.574;2023-02-01T12:49:19;3.80;99.90
23102;DHT22;11720;51.214;22.574;2023-02-01T12:51:54;3.90;99.90
23102;DHT22;11720;51.214;22.574;2023-02-01T12:54:28;3.80;99.90
23102;DHT22;11720;51.214;22.574;2023-02-01T12:57:05;3.90;99.90
23102;DHT22;11720;51.214;22.574;2023-02-01T12:59:42;3.70;99.90
23102;DHT22;11720;51.214;22.574;2023-02-01T13:08:05;4.10;99.90
23102;DHT22;11720;51.214;22.574;2023-02-01T13:15:57;4.00;99.90
23102;DHT22;11720;51.214;22.574;2023-02-01T13:18:26;4.00;99.90
23102;DHT22;11720;51.214;22.574;2023-02-01T13:21:08;4.60;99.90
23102;DHT22;11720;51.214;22.574;2023-02-01T13:23:38;3.80;99.90
23102;DHT22;11720;51.214;22.574;2023-02-01T13:40:38;3.00;99.90
23102;DHT22;11720;51.214;22.574;2023-02-01T13:45:48;3.10;99.90
23102;DHT22;11720;51.214;22.574;2023-02-01T13:48:38;3.10;99.90
23102;DHT22;11720;51.214;22.574;2023-02-01T13:53:35;3.20;99.90
23102;DHT22;11720;51.214;22.574;2023-02-01T13:56:20;3.30;99.90
23102;DHT22;11720;51.214;22.574;2023-02-01T13:58:48;3.30;99.90
23102;DHT22;11720;51.214;22.574;2023-02-01T14:04:46;3.30;99.90
23102;DHT22;11720;51.214;22.574;2023-02-01T14:06:44;-0.50;99.90
23102;DHT22;11720;51.214;22.574;2023-02-01T14:19:31;3.30;99.90
23102;DHT22;11720;51.214;22.574;2023-02-01T14:24:50;3.20;99.90
23102;DHT22;11720;51.214;22.574;2023-02-01T14:27:21;3.20;99.90
23102;DHT22;11720;51.214;22.574;2023-02-01T14:29:53;3.20;99.90
23102;DHT22;11720;51.214;22.574;2023-02-01T14:32:26;3.20;99.90
23102;DHT22;11720;51.214;22.574;2023-02-01T14:34:59;3.20;99.90
23102;DHT22;11720;51.214;22.574;2023-02-01T14:37:34;3.20;99.90
23102;DHT22;11720;51.214;22.574;2023-02-01T14:40:14;3.30;99.90
23102;DHT22;11720;51.214;22.574;2023-02-01T14:58:03;3.20;99.90
23102;DHT22;11720;51.214;22.574;2023-02-01T15:00:31;3.20;99.90
23102;DHT22;11720;51.214;22.574;2023-02-01T15:08:17;3.10;99.90
23102;DHT22;11720;51.214;22.574;2023-02-01T15:10:46;3.10;99.90
23102;DHT22;11720;51.214;22.574;2023-02-01T15:16:11;2.70;99.90
23102;DHT22;11720;51.214;22.574;2023-02-01T15:21:05;3.20;99.90
23102;DHT22;11720;51.214;22.574;2023-02-01T15:28:25;3.30;99.90
23102;DHT22;11720;51.214;22.574;2023-02-01T15:30:59;3.30;99.90
23102;DHT22;11720;51.214;22.574;2023-02-01T15:33:26;3.20;99.90
23102;DHT22;11720;51.214;22.574;2023-02-01T15:35:54;3.20;99.90
23102;DHT22;11720;51.214;22.574;2023-02-01T15:43:32;3.20;99.90
23102;DHT22;11720;51.214;22.574;2023-02-01T15:46:06;3.10;99.90
23102;DHT22;11720;51.214;22.574;2023-02-01T15:48:52;3.10;99.90
23102;DHT22;11720;51.214;22.574;2023-02-01T15:51:23;3.00;99.90
23102;DHT22;11720;51.214;22.574;2023-02-01T15:54:04;3.00;99.90
23102;DHT22;11720;51.214;22.574;2023-02-01T15:56:39;2.70;99.90
23102;DHT22;11720;51.214;22.574;2023-02-01T15:59:17;2.90;99.90
23102;DHT22;11720;51.214;22.574;2023-02-01T16:04:27;3.00;99.90
23102;DHT22;11720;51.214;22.574;2023-02-01T16:07:03;2.80;99.90
23102;DHT22;11720;51.214;22.574;2023-02-01T16:09:40;2.80;99.90
23102;DHT22;11720;51.214;22.574;2023-02-01T16:20:41;2.60;99.90
23102;DHT22;11720;51.214;22.574;2023-02-01T16:23:08;2.60;99.90
23102;DHT22;11720;51.214;22.574;2023-02-01T16:32:55;2.70;99.90
23102;DHT22;11720;51.214;22.574;2023-02-01T16:35:34;2.60;99.90
23102;DHT22;11720;51.214;22.574;2023-02-01T16:38:21;2.70;99.90
23102;DHT22;11720;51.214;22.574;2023-02-01T16:40:49;2.60;99.90
23102;DHT22;11720;51.214;22.574;2023-02-01T16:43:22;2.70;99.90
23102;DHT22;11720;51.214;22.574;2023-02-01T16:45:49;2.70;99.90
23102;DHT22;11720;51.214;22.574;2023-02-01T16:48:24;2.70;99.90
23102;DHT22;11720;51.214;22.574;2023-02-01T16:50:54;2.70;99.90
23102;DHT22;11720;51.214;22.574;2023-02-01T16:53:21;2.80;99.90
23102;DHT22;11720;51.214;22.574;2023-02-01T16:58:16;2.70;99.90
23102;DHT22;11720;51.214;22.574;2023-02-01T17:03:10;2.70;99.90
23102;DHT22;11720;51.214;22.574;2023-02-01T17:08:05;4.50;99.90
23102;DHT22;11720;51.214;22.574;2023-02-01T17:15:28;2.60;99.90
23102;DHT22;11720;51.214;22.574;2023-02-01T17:20:29;2.60;99.90
23102;DHT22;11720;51.214;22.574;2023-02-01T17:45:33;2.40;99.90
23102;DHT22;11720;51.214;22.574;2023-02-01T17:50:30;2.20;99.90
23102;DHT22;11720;51.214;22.574;2023-02-01T17:55:24;2.20;99.90
23102;DHT22;11720;51.214;22.574;2023-02-01T18:00:17;2.30;99.90
23102;DHT22;11720;51.214;22.574;2023-02-01T18:05:14;2.40;99.90
23102;DHT22;11720;51.214;22.574;2023-02-01T18:22:22;2.00;99.90
23102;DHT22;11720;51.214;22.574;2023-02-01T18:32:09;1.70;99.90
23102;DHT22;11720;51.214;22.574;2023-02-01T18:54:10;1.50;99.90
23102;DHT22;11720;51.214;22.574;2023-02-01T18:59:04;1.60;99.90
23102;DHT22;11720;51.214;22.574;2023-02-01T19:16:11;1.90;99.90
23102;DHT22;11720;51.214;22.574;2023-02-01T19:21:10;2.00;99.90
23102;DHT22;11720;51.214;22.574;2023-02-01T19:23:40;1.70;99.90
23102;DHT22;11720;51.214;22.574;2023-02-01T19:26:34;2.00;99.90
23102;DHT22;11720;51.214;22.574;2023-02-01T19:33:54;2.20;99.90
23102;DHT22;11720;51.214;22.574;2023-02-01T19:41:13;2.20;99.90
23102;DHT22;11720;51.214;22.574;2023-02-01T19:46:07;2.30;99.90
23102;DHT22;11720;51.214;22.574;2023-02-01T19:48:33;2.30;99.90
23102;DHT22;11720;51.214;22.574;2023-02-01T19:53:26;2.30;99.90
23102;DHT22;11720;51.214;22.574;2023-02-01T19:55:54;2.40;99.90
23102;DHT22;11720;51.214;22.574;2023-02-01T20:03:14;2.30;99.90
23102;DHT22;11720;51.214;22.574;2023-02-01T20:20:18;2.60;99.90
23102;DHT22;11720;51.214;22.574;2023-02-01T20:30:05;2.10;99.90
23102;DHT22;11720;51.214;22.574;2023-02-01T20:57:00;2.30;99.90
23102;DHT22;11720;51.214;22.574;2023-02-01T21:01:53;2.30;99.90
23102;DHT22;11720;51.214;22.574;2023-02-01T21:04:28;2.30;99.90
23102;DHT22;11720;51.214;22.574;2023-02-01T21:06:57;2.30;99.90
23102;DHT22;11720;51.214;22.574;2023-02-01T21:33:57;2.70;99.90
23102;DHT22;11720;51.214;22.574;2023-02-01T21:38:50;2.30;99.90
23102;DHT22;11720;51.214;22.574;2023-02-01T21:41:24;2.50;99.90
23102;DHT22;11720;51.214;22.574;2023-02-01T21:44:09;2.20;99.90
23102;DHT22;11720;51.214;22.574;2023-02-01T21:51:29;2.20;99.90
23102;DHT22;11720;51.214;22.574;2023-02-01T22:08:36;2.20;99.90
23102;DHT22;11720;51.214;22.574;2023-02-01T22:15:55;2.30;99.90
23102;DHT22;11720;51.214;22.574;2023-02-01T22:23:14;2.00;99.90
23102;DHT22;11720;51.214;22.574;2023-02-01T22:45:09;1.90;99.90
23102;DHT22;11720;51.214;22.574;2023-02-01T23:24:07;1.70;99.90
23102;DHT22;11720;51.214;22.574;2023-02-01T23:31:29;1.70;99.90
23102;DHT22;11720;51.214;22.574;2023-02-01T23:33:56;1.70;99.90
23102;DHT22;11720;51.214;22.574;2023-02-01T23:36:23;1.80;99.90
23102;DHT22;11720;51.214;22.574;2023-02-01T23:41:17;1.70;99.90
23102;DHT22;11720;51.214;22.574;2023-02-01T23:46:32;1.80;99.90
23102;DHT22;11720;51.214;22.574;2023-02-01T23:56:23;1.80;99.90
